Avon, Mississippi
Current Conditions -  °F | °C
As of 4:53 PM on Friday 19 Dec 2014 (Local Time) from KGLH Reporting Station
Overcast Overcast  
Wind Chill: 42°   Ceiling: 1200
Heat Index: 46°   Visibility: 7mi
Dew Point: 42°   Wind: 8mph
Humidity: 86%   Direction: 10°N
Pressure: 30.17"   Gusts: NA
Location:  33.23°N, 91.05°W
Report Text: KGLH 192253Z AUTO 01007KT 7SM BKN012 OVC120 08/06 A3017 RMK AO2 RAB03E22 SLP225 P0000 T00780056
Loading
Personal Weather Stations






























Interactive Weather Map New forecast layout! Learn more

10-Day Weather Forecast

Advertisements
Track Severe Weather on mobile